Time;durP1;ratioP1;P1;durP2;ratioP2;P2;SDS_P1;SDS_P2;PMS_P1;PMS_P2;Temp;Humidity;BMP_temperature;BMP_pressure;BME280_temperature;BME280_humidity;BME280_pressure;Samples;Min_cycle;Max_cycle;Signal;HPM_P1;HPM_P2
2021/07/20 00:00:30;;;;;;;6.30;3.80;;;;;;;14.29;75.89;101596.06;5054997;28;20093;-78
2021/07/20 00:02:56;;;;;;;6.03;3.40;;;;;;;14.18;76.30;101575.72;5071540;28;20418;-78
2021/07/20 00:05:24;;;;;;;9.73;4.30;;;;;;;14.30;76.97;101592.34;5071481;28;20135;-77
2021/07/20 00:07:51;;;;;;;8.15;4.10;;;;;;;14.21;77.07;101596.91;5071076;28;20032;-79
2021/07/20 00:10:22;;;;;;;11.57;4.07;;;;;;;14.24;76.28;101593.03;5054626;28;20028;-78
2021/07/20 00:12:49;;;;;;;6.18;3.55;;;;;;;14.25;75.96;101598.22;5070267;28;20488;-79
2021/07/20 00:15:15;;;;;;;;;;;;;;;14.25;76.33;101592.84;5072490;28;20021;-79
2021/07/20 00:17:42;;;;;;;;;;;;;;;14.16;76.50;101591.16;5072320;28;19985;-79
2021/07/20 00:20:08;;;;;;;8.07;3.55;;;;;;;14.08;77.20;101591.16;5054655;28;19916;-78
2021/07/20 00:22:34;;;;;;;;;;;;;;;14.18;76.27;101596.38;5054680;28;20064;-78
2021/07/20 00:24:59;;;;;;;12.57;3.83;;;;;;;14.07;76.35;101594.84;5071152;28;20335;-78
2021/07/20 00:27:25;;;;;;;8.97;4.00;;;;;;;14.06;76.47;101587.81;5070810;28;20469;-78
2021/07/20 00:29:50;;;;;;;11.13;5.03;;;;;;;13.96;76.83;101589.81;5054507;28;20552;-78
2021/07/20 00:32:16;;;;;;;7.83;3.50;;;;;;;13.87;77.37;101589.75;5054133;28;20119;-79
2021/07/20 00:34:41;;;;;;;8.73;3.53;;;;;;;13.94;76.75;101598.00;5071015;28;20607;-79
2021/07/20 00:37:07;;;;;;;7.30;3.65;;;;;;;13.89;77.32;101598.50;5070830;28;20024;-79
2021/07/20 00:39:34;;;;;;;;;;;;;;;13.88;77.32;101596.84;5054910;28;20416;-79
2021/07/20 00:42:01;;;;;;;9.70;3.92;;;;;;;13.75;77.89;101591.06;5054268;28;19912;-78
2021/07/20 00:44:27;;;;;;;14.05;4.07;;;;;;;13.78;78.22;101590.75;5070642;28;20182;-78
2021/07/20 00:46:53;;;;;;;8.35;3.38;;;;;;;13.77;77.93;101596.28;5053631;28;20471;-78
2021/07/20 00:49:19;;;;;;;11.05;4.22;;;;;;;13.81;77.34;101601.13;5071412;28;20036;-79
2021/07/20 00:51:45;;;;;;;12.57;4.45;;;;;;;13.82;77.08;101599.31;5070475;28;20055;-78
2021/07/20 00:54:11;;;;;;;11.10;4.00;;;;;;;13.79;77.32;101602.31;5053855;28;20067;-77
2021/07/20 00:56:37;;;;;;;14.30;4.60;;;;;;;13.68;78.71;101592.72;5070368;28;20118;-78
2021/07/20 00:59:03;;;;;;;14.10;5.03;;;;;;;13.67;78.49;101585.66;5070338;28;20032;-79
2021/07/20 01:01:29;;;;;;;10.48;4.32;;;;;;;13.76;78.12;101592.75;5070542;28;20501;-78
2021/07/20 01:03:56;;;;;;;14.60;5.90;;;;;;;13.67;78.35;101589.22;5052623;28;20024;-80
2021/07/20 01:06:26;;;;;;;12.85;5.03;;;;;;;13.66;77.86;101589.38;5070292;28;20044;-78
2021/07/20 01:08:53;;;;;;;11.77;4.55;;;;;;;13.63;78.19;101595.91;5071179;28;20046;-78
2021/07/20 01:11:21;;;;;;;8.02;3.67;;;;;;;13.61;78.57;101597.06;5071242;28;20044;-78
2021/07/20 01:13:47;;;;;;;8.63;4.38;;;;;;;13.63;78.44;101587.84;5069940;28;20028;-78
2021/07/20 01:16:14;;;;;;;;;;;;;;;13.68;78.13;101595.41;5053671;28;20032;-78
2021/07/20 01:18:40;;;;;;;7.03;3.50;;;;;;;13.69;77.91;101586.34;5071110;28;19916;-79
2021/07/20 01:21:09;;;;;;;8.75;4.53;;;;;;;13.71;77.83;101592.41;5070177;28;20078;-78
2021/07/20 01:23:44;;;;;;;8.68;4.65;;;;;;;13.66;78.35;101586.69;5069926;28;20138;-77
2021/07/20 01:26:12;;;;;;;10.35;4.40;;;;;;;13.70;77.76;101588.03;5069537;28;20024;-78
2021/07/20 01:28:41;;;;;;;;;;;;;;;13.63;78.09;101579.81;5070411;28;20032;-77
2021/07/20 01:31:15;;;;;;;10.05;3.92;;;;;;;13.52;78.80;101586.28;5053840;28;19916;-78
2021/07/20 01:33:45;;;;;;;8.68;4.80;;;;;;;13.52;78.55;101580.91;5069680;28;20047;-78
2021/07/20 01:36:15;;;;;;;12.40;3.67;;;;;;;13.39;79.00;101575.19;5069299;28;20025;-78
2021/07/20 01:38:44;;;;;;;10.70;4.53;;;;;;;13.56;77.83;101586.81;5070066;28;20090;-79
2021/07/20 01:41:14;;;;;;;14.95;5.40;;;;;;;13.48;78.41;101582.25;5053103;28;20029;-78
2021/07/20 01:43:44;;;;;;;11.07;3.85;;;;;;;13.48;78.48;101590.28;5070523;28;20366;-78
2021/07/20 01:46:13;;;;;;;9.65;4.03;;;;;;;13.46;78.78;101580.72;5052358;28;20119;-78
2021/07/20 01:48:42;;;;;;;12.93;4.80;;;;;;;13.37;79.03;101579.88;5053059;28;20119;-78
2021/07/20 01:51:14;;;;;;;11.77;4.32;;;;;;;13.40;78.66;101576.03;5069381;28;20033;-78
2021/07/20 01:53:42;;;;;;;14.38;4.70;;;;;;;13.39;79.12;101574.31;5053311;28;20079;-77
2021/07/20 01:56:09;;;;;;;10.23;5.30;;;;;;;13.36;79.10;101577.34;5069298;28;20108;-78
2021/07/20 01:58:41;;;;;;;10.38;3.83;;;;;;;13.28;80.21;101572.78;5069697;28;20116;-78
2021/07/20 02:01:37;;;;;;;11.20;4.63;;;;;;;13.31;79.27;101567.09;5069213;28;20029;-78
2021/07/20 02:09:52;;;;;;;9.85;5.10;;;;;;;13.16;79.51;101574.00;5069569;28;20044;-78
2021/07/20 02:12:28;;;;;;;12.15;4.68;;;;;;;13.24;79.31;101574.91;5069115;28;20032;-78
2021/07/20 02:15:08;;;;;;;14.15;4.40;;;;;;;13.29;78.56;101582.50;5054517;28;20051;-77
2021/07/20 02:17:46;;;;;;;9.63;4.53;;;;;;;13.24;78.87;101576.75;5053922;28;20036;-77
2021/07/20 02:20:23;;;;;;;8.45;3.97;;;;;;;13.17;79.40;101575.69;5053008;28;20472;-77
2021/07/20 02:22:56;;;;;;;10.73;4.78;;;;;;;13.20;78.90;101570.00;5069262;28;20085;-78
2021/07/20 02:25:24;;;;;;;17.30;4.72;;;;;;;13.23;79.08;101570.53;5069172;28;20028;-77
2021/07/20 02:27:50;;;;;;;10.65;5.18;;;;;;;13.15;78.71;101569.66;5052127;28;20552;-77
2021/07/20 02:30:25;;;;;;;9.93;4.25;;;;;;;13.21;77.80;101572.53;5070302;28;20346;-77
2021/07/20 02:32:53;;;;;;;16.15;5.22;;;;;;;13.17;78.08;101571.16;5069877;28;20028;-77
2021/07/20 02:35:24;;;;;;;7.30;4.30;;;;;;;13.14;78.36;101570.66;5052587;28;20036;-77
2021/07/20 02:37:51;;;;;;;15.35;4.57;;;;;;;13.11;78.31;101571.81;5073057;28;20029;-77
2021/07/20 02:40:22;;;;;;;11.00;4.07;;;;;;;13.01;78.79;101577.28;5074169;28;20024;-78
2021/07/20 02:42:50;;;;;;;13.90;4.50;;;;;;;12.98;79.22;101569.56;5072906;28;20662;-77
2021/07/20 02:45:18;;;;;;;17.25;5.63;;;;;;;12.97;78.24;101565.22;5073921;28;20173;-78
2021/07/20 02:47:48;;;;;;;7.57;3.75;;;;;;;12.99;78.12;101579.25;5056192;28;20032;-77
2021/07/20 02:50:20;;;;;;;15.55;4.47;;;;;;;12.86;78.93;101570.81;5072961;28;20032;-77
2021/07/20 02:52:49;;;;;;;8.20;3.67;;;;;;;12.92;78.86;101572.84;5073660;28;20024;-78
2021/07/20 02:55:23;;;;;;;9.57;4.20;;;;;;;12.86;78.70;101566.31;5072716;28;20126;-78
2021/07/20 02:57:52;;;;;;;8.23;4.15;;;;;;;12.85;78.72;101569.13;5055897;28;20450;-77
2021/07/20 03:00:19;;;;;;;8.02;3.65;;;;;;;12.79;78.65;101577.81;5073636;28;20032;-77
2021/07/20 03:02:54;;;;;;;6.38;3.80;;;;;;;12.78;78.81;101576.13;5072397;28;20036;-78
2021/07/20 03:05:20;;;;;;;12.70;4.40;;;;;;;12.77;78.59;101569.09;5072453;28;20440;-79
2021/07/20 03:07:53;;;;;;;14.15;4.57;;;;;;;12.82;78.32;101580.16;5072191;28;20032;-79
2021/07/20 03:10:22;;;;;;;10.75;4.18;;;;;;;12.92;77.86;101586.25;5072270;28;20040;-78
2021/07/20 03:12:49;;;;;;;6.78;3.90;;;;;;;12.98;77.49;101582.97;5072296;28;20071;-78
2021/07/20 03:15:16;;;;;;;9.90;4.25;;;;;;;12.93;78.28;101593.31;5072194;28;20056;-77
2021/07/20 03:17:52;;;;;;;10.18;4.07;;;;;;;12.98;78.38;101587.47;5072010;28;20461;-78
2021/07/20 03:20:19;;;;;;;7.78;3.47;;;;;;;12.99;77.82;101581.94;5072295;28;20035;-77
2021/07/20 03:22:46;;;;;;;14.32;5.03;;;;;;;12.98;78.36;101585.63;5055510;28;20031;-78
2021/07/20 03:25:17;;;;;;;8.13;4.05;;;;;;;13.01;77.84;101579.94;5071979;28;20036;-78
2021/07/20 03:27:44;;;;;;;10.90;4.05;;;;;;;12.96;77.99;101584.94;5055381;28;20051;-77
2021/07/20 03:30:12;;;;;;;7.82;4.13;;;;;;;13.14;77.63;101586.75;5072048;28;20028;-78
2021/07/20 03:32:44;;;;;;;10.25;5.03;;;;;;;13.08;77.49;101582.84;5055343;28;20028;-77
2021/07/20 03:35:15;;;;;;;5.78;3.80;;;;;;;13.16;78.14;101590.09;5071894;28;20120;-77
2021/07/20 03:37:43;;;;;;;10.45;4.95;;;;;;;13.21;77.00;101585.13;5071619;28;20028;-79
2021/07/20 03:40:11;;;;;;;11.45;5.30;;;;;;;13.13;77.42;101577.00;5071645;28;20355;-77
2021/07/20 03:42:38;;;;;;;5.97;4.53;;;;;;;13.18;77.30;101572.00;5071895;28;20039;-78
2021/07/20 03:45:06;;;;;;;9.48;4.38;;;;;;;13.16;77.59;101584.72;5054878;28;20048;-78
2021/07/20 03:47:33;;;;;;;6.40;3.55;;;;;;;13.08;77.62;101586.34;5071285;28;20028;-78
2021/07/20 03:50:05;;;;;;;20.40;5.32;;;;;;;13.02;77.20;101581.66;5072690;28;20105;-77
2021/07/20 03:52:32;;;;;;;13.38;3.95;;;;;;;13.05;77.97;101588.53;5071780;28;20028;-77
2021/07/20 03:54:58;;;;;;;6.75;3.85;;;;;;;13.00;78.09;101588.16;5071390;28;20119;-76
2021/07/20 03:57:25;;;;;;;5.93;3.75;;;;;;;13.01;77.89;101588.00;5071274;28;20055;-78
2021/07/20 03:59:53;;;;;;;8.75;4.13;;;;;;;12.98;78.03;101588.31;5071301;28;20033;-77
2021/07/20 04:05:55;;;;;;;12.77;4.13;;;;;;;12.96;77.82;101590.31;5071739;28;20044;-78
2021/07/20 04:08:23;;;;;;;12.10;4.78;;;;;;;13.00;78.05;101593.53;5072454;28;20043;-78
2021/07/20 04:10:53;;;;;;;7.35;3.90;;;;;;;12.91;78.57;101587.28;5071249;28;20042;-78
2021/07/20 04:13:23;;;;;;;9.90;4.07;;;;;;;12.91;78.74;101586.44;5071190;28;20465;-78
2021/07/20 04:16:01;;;;;;;12.27;4.40;;;;;;;12.92;78.99;101591.63;5070728;28;20070;-78
2021/07/20 04:18:34;;;;;;;10.57;4.63;;;;;;;12.95;78.24;101596.69;5071259;28;20056;-77
2021/07/20 04:21:02;;;;;;;12.52;4.22;;;;;;;12.94;78.14;101594.16;5071074;28;20028;-76
2021/07/20 04:23:29;;;;;;;12.05;4.20;;;;;;;12.97;78.37;101602.72;5070910;28;20035;-78
2021/07/20 04:26:02;;;;;;;12.45;4.35;;;;;;;12.86;79.29;101601.13;5070425;28;20358;-78
2021/07/20 04:28:34;;;;;;;8.98;4.50;;;;;;;12.87;79.18;101601.97;5071035;28;20055;-78
2021/07/20 04:31:02;;;;;;;14.35;4.32;;;;;;;12.84;78.54;101597.78;5053983;28;20499;-77
2021/07/20 04:33:32;;;;;;;17.83;5.47;;;;;;;12.89;79.32;101602.66;5071770;28;20040;-77
2021/07/20 04:36:20;;;;;;;10.07;4.90;;;;;;;12.94;79.63;101602.19;5040056;28;20044;-78
2021/07/20 04:38:49;;;;;;;11.80;5.60;;;;;;;12.98;80.22;101604.41;5071811;28;20025;-77
2021/07/20 04:41:16;;;;;;;8.07;4.45;;;;;;;12.94;81.28;101596.84;5070796;28;20059;-78
2021/07/20 04:43:46;;;;;;;12.75;5.75;;;;;;;12.92;81.54;101599.66;5070564;28;20060;-77
2021/07/20 04:46:20;;;;;;;10.43;4.55;;;;;;;13.09;81.66;101604.16;5053808;28;20089;-77
2021/07/20 04:48:46;;;;;;;12.98;4.78;;;;;;;13.05;81.43;101616.19;5054071;28;20032;-77
2021/07/20 04:51:15;;;;;;;9.88;5.15;;;;;;;13.07;81.49;101616.03;5070352;28;20094;-78
2021/07/20 04:53:41;;;;;;;7.70;4.82;;;;;;;13.26;82.04;101620.34;5053641;28;20033;-77
2021/07/20 04:56:08;;;;;;;14.15;4.22;;;;;;;13.38;80.09;101618.25;5053178;28;20098;-77
2021/07/20 04:58:35;;;;;;;13.95;4.85;;;;;;;13.43;78.55;101622.13;5070092;28;20024;-77
2021/07/20 05:01:03;;;;;;;7.22;4.03;;;;;;;13.52;78.68;101621.16;5069873;28;20059;-76
2021/07/20 05:03:32;;;;;;;11.25;4.72;;;;;;;13.66;78.07;101625.09;5070231;28;20484;-77
2021/07/20 05:05:59;;;;;;;13.45;4.72;;;;;;;13.63;76.85;101616.53;5053083;28;20024;-77
2021/07/20 05:08:33;;;;;;;11.50;4.50;;;;;;;13.98;76.56;101622.66;5054477;28;20079;-77
2021/07/20 05:11:00;;;;;;;10.43;4.85;;;;;;;14.21;75.94;101634.50;5069975;28;20059;-76
2021/07/20 05:13:32;;;;;;;7.50;4.57;;;;;;;14.16;75.22;101639.50;5054259;28;20036;-76
2021/07/20 05:16:00;;;;;;;10.57;3.78;;;;;;;14.24;74.26;101628.78;5069616;28;20032;-76
2021/07/20 05:18:37;;;;;;;10.77;4.78;;;;;;;14.42;73.48;101641.22;5069908;28;20413;-77
2021/07/20 05:21:05;;;;;;;9.45;4.43;;;;;;;14.61;73.27;101640.97;5069717;28;20123;-77
2021/07/20 05:23:35;;;;;;;8.27;3.67;;;;;;;14.55;72.12;101653.19;5067973;28;20043;-77
2021/07/20 05:26:21;;;;;;;10.88;4.25;;;;;;;14.68;71.88;101654.53;5068855;28;20474;-77
2021/07/20 05:28:47;;;;;;;13.85;5.20;;;;;;;14.95;71.49;101658.75;5069111;28;20060;-77
2021/07/20 05:31:13;;;;;;;5.53;3.50;;;;;;;15.37;69.38;101658.53;5068839;28;20136;-77
2021/07/20 05:33:39;;;;;;;8.95;3.22;;;;;;;15.54;68.37;101653.94;5051282;28;20507;-77
2021/07/20 05:36:11;;;;;;;9.25;3.40;;;;;;;16.25;65.58;101651.31;5067557;28;20086;-77
2021/07/20 05:38:38;;;;;;;7.57;3.45;;;;;;;17.07;64.43;101650.69;5068963;28;20056;-77
2021/07/20 05:41:28;;;;;;;7.68;3.58;;;;;;;17.64;61.25;101660.84;5070272;28;20509;-77
2021/07/20 05:43:55;;;;;;;6.50;3.00;;;;;;;17.75;60.08;101656.00;5069236;28;20033;-77
2021/07/20 05:46:22;;;;;;;16.00;4.05;;;;;;;17.91;57.97;101656.69;5068914;28;20515;-77
2021/07/20 05:48:49;;;;;;;10.10;3.88;;;;;;;17.66;59.60;101650.72;5070337;28;20055;-77
2021/07/20 05:51:16;;;;;;;10.77;3.47;;;;;;;18.42;58.03;101668.47;5052623;28;20363;-78
2021/07/20 05:54:01;;;;;;;9.95;3.15;;;;;;;19.22;56.12;101661.91;5055043;28;20090;-77
2021/07/20 05:56:48;;;;;;;7.43;3.45;;;;;;;19.00;57.09;101660.31;5070118;28;20074;-76
2021/07/20 05:59:32;;;;;;;8.10;2.72;;;;;;;19.70;53.77;101663.91;5069362;28;20047;-76
2021/07/20 06:02:05;;;;;;;11.55;3.35;;;;;;;19.56;54.07;101660.28;5069139;28;20052;-76
2021/07/20 06:04:31;;;;;;;7.72;3.17;;;;;;;19.64;53.28;101664.69;5068871;28;20475;-76
2021/07/20 06:07:02;;;;;;;3.72;2.65;;;;;;;19.26;52.21;101648.84;5070075;28;20127;-77
2021/07/20 06:09:28;;;;;;;8.35;3.28;;;;;;;18.68;55.08;101665.19;5069082;28;20036;-77
2021/07/20 06:11:55;;;;;;;5.18;2.60;;;;;;;18.65;54.11;101639.38;5068310;28;20450;-77
2021/07/20 06:14:22;;;;;;;4.57;2.65;;;;;;;18.83;54.11;101655.19;5069666;28;20508;-77
2021/07/20 06:16:47;;;;;;;6.80;2.92;;;;;;;19.65;53.29;101655.53;5068819;28;20127;-77
2021/07/20 06:19:12;;;;;;;6.87;3.17;;;;;;;19.57;53.00;101656.50;5068906;28;20507;-77
2021/07/20 06:21:40;;;;;;;6.13;2.97;;;;;;;19.25;54.79;101644.47;5052262;28;20039;-77
2021/07/20 06:24:07;;;;;;;9.25;3.25;;;;;;;19.68;52.89;101655.97;5052125;28;20583;-78
2021/07/20 06:26:34;;;;;;;7.40;3.08;;;;;;;19.50;52.11;101652.94;5068760;28;20608;-77
2021/07/20 06:29:01;;;;;;;7.50;3.22;;;;;;;19.32;53.05;101651.59;5069810;28;20040;-77
2021/07/20 06:31:28;;;;;;;10.38;3.55;;;;;;;18.56;54.16;101652.19;5069971;28;20025;-77
2021/07/20 06:33:55;;;;;;;7.00;2.97;;;;;;;19.51;52.64;101660.88;5068830;28;20039;-77
2021/07/20 06:36:22;;;;;;;8.60;3.10;;;;;;;20.13;52.15;101663.66;5068432;28;20027;-78
2021/07/20 06:38:49;;;;;;;4.97;3.58;;;;;;;19.18;53.53;101658.78;5069950;28;20039;-77
2021/07/20 06:41:16;;;;;;;;;;;;;;;19.50;52.49;101658.34;5070304;28;20111;-78
2021/07/20 06:43:42;;;;;;;8.27;3.67;;;;;;;18.86;53.75;101662.06;5068653;28;19919;-77
2021/07/20 06:46:09;;;;;;;10.52;3.38;;;;;;;18.68;54.92;101649.81;5067994;28;20398;-77
2021/07/20 06:48:38;;;;;;;7.85;3.70;;;;;;;18.78;54.24;101657.63;5052194;28;20033;-77
2021/07/20 06:51:06;;;;;;;8.15;3.28;;;;;;;18.47;55.83;101652.50;5051857;28;20822;-77
2021/07/20 06:53:34;;;;;;;9.98;3.22;;;;;;;19.33;54.61;101661.38;5069459;28;20128;-76
2021/07/20 06:56:02;;;;;;;6.53;3.58;;;;;;;20.01;53.47;101666.13;5069122;28;20036;-77
2021/07/20 06:58:28;;;;;;;8.45;3.25;;;;;;;20.96;49.88;101671.56;5069690;28;20488;-78
2021/07/20 07:00:57;;;;;;;10.30;4.75;;;;;;;19.79;51.07;101662.72;5051859;28;20059;-78
2021/07/20 07:03:26;;;;;;;11.40;4.72;;;;;;;18.58;55.02;101654.69;5069603;28;20063;-77
2021/07/20 07:05:56;;;;;;;6.35;4.00;;;;;;;18.67;54.42;101658.13;5069095;28;20047;-77
2021/07/20 07:08:22;;;;;;;6.22;4.00;;;;;;;18.66;55.87;101653.72;5069659;28;20040;-76
2021/07/20 07:10:48;;;;;;;;;;;;;;;18.26;55.25;101656.03;5068841;28;20020;-76
2021/07/20 07:13:17;;;;;;;9.60;4.75;;;;;;;17.54;56.94;101657.63;5068632;28;20261;-77
2021/07/20 07:15:43;;;;;;;7.68;5.15;;;;;;;17.69;57.46;101665.69;5051322;28;20369;-76
2021/07/20 07:18:08;;;;;;;6.77;4.30;;;;;;;18.25;55.34;101648.97;5068366;28;20040;-76
2021/07/20 07:20:35;;;;;;;9.73;4.93;;;;;;;19.34;53.61;101676.59;5068408;28;20279;-76
2021/07/20 07:23:03;;;;;;;9.43;5.03;;;;;;;19.47;52.77;101670.41;5071139;28;20454;-76
2021/07/20 07:25:29;;;;;;;9.70;5.07;;;;;;;18.85;55.45;101661.22;5072093;28;20063;-77
2021/07/20 07:27:55;;;;;;;10.40;5.63;;;;;;;18.00;56.45;101660.09;5072504;28;20055;-76
2021/07/20 07:30:21;;;;;;;10.65;4.50;;;;;;;17.64;56.98;101655.47;5072065;28;20028;-77
2021/07/20 07:32:48;;;;;;;7.60;5.03;;;;;;;17.85;58.11;101670.09;5072709;28;20351;-76
2021/07/20 07:35:14;;;;;;;11.15;5.65;;;;;;;17.53;57.63;101669.41;5071749;28;20044;-76
2021/07/20 07:37:43;;;;;;;13.73;6.80;;;;;;;17.36;56.72;101663.38;5072543;28;20027;-76
2021/07/20 07:40:11;;;;;;;10.60;5.80;;;;;;;17.61;57.21;101671.22;5071829;28;20040;-79
2021/07/20 07:42:38;;;;;;;12.02;5.95;;;;;;;17.84;56.58;101668.41;5054839;28;20036;-76
2021/07/20 07:45:06;;;;;;;12.75;6.65;;;;;;;17.96;57.00;101666.94;5072645;28;20043;-76
2021/07/20 07:47:33;;;;;;;12.95;6.05;;;;;;;17.84;56.47;101660.31;5072273;28;20058;-76
2021/07/20 07:49:59;;;;;;;13.68;5.88;;;;;;;17.63;56.98;101659.19;5072731;28;20794;-76
2021/07/20 07:52:25;;;;;;;11.90;6.07;;;;;;;17.47;57.29;101659.38;5054732;28;20091;-76
2021/07/20 07:54:51;;;;;;;10.73;5.90;;;;;;;17.00;58.24;101660.53;5072572;28;20559;-77
2021/07/20 07:57:18;;;;;;;15.33;6.00;;;;;;;18.01;56.09;101658.25;5071334;28;20109;-76
2021/07/20 07:59:45;;;;;;;8.43;5.38;;;;;;;17.82;56.53;101663.22;5071551;28;20290;-76
2021/07/20 08:02:17;;;;;;;14.27;6.13;;;;;;;18.47;55.21;101675.00;5072251;28;20017;-76
2021/07/20 08:04:43;;;;;;;8.75;5.00;;;;;;;18.21;55.12;101667.41;5072367;28;20445;-76
2021/07/20 08:07:10;;;;;;;8.70;5.40;;;;;;;18.85;55.21;101682.88;5071055;28;20581;-76
2021/07/20 08:09:36;;;;;;;8.27;5.43;;;;;;;19.77;51.81;101679.16;5072528;28;20362;-76
2021/07/20 08:12:03;;;;;;;9.55;6.00;;;;;;;19.79;51.29;101668.13;5071173;28;20033;-77
2021/07/20 08:14:29;;;;;;;10.70;6.07;;;;;;;19.85;53.75;101680.03;5071144;28;20947;-77
2021/07/20 08:17:00;;;;;;;8.55;6.07;;;;;;;20.19;49.96;101673.72;5054270;28;20044;-76
2021/07/20 08:19:31;;;;;;;10.90;5.82;;;;;;;19.70;52.07;101667.47;5072078;28;20103;-76
2021/07/20 08:22:00;;;;;;;9.35;5.15;;;;;;;18.92;52.31;101672.13;5072221;28;20024;-77
2021/07/20 08:24:29;;;;;;;8.52;5.18;;;;;;;18.75;53.61;101671.50;5071032;28;20029;-77
2021/07/20 08:27:00;;;;;;;9.40;4.90;;;;;;;18.82;52.50;101669.72;5071921;28;20098;-77
2021/07/20 08:29:32;;;;;;;13.50;5.38;;;;;;;19.33;51.53;101679.50;5071866;28;20369;-76
2021/07/20 08:32:04;;;;;;;6.90;5.22;;;;;;;18.90;53.72;101675.00;5071838;28;20037;-76
2021/07/20 08:34:33;;;;;;;8.98;5.05;;;;;;;19.16;53.63;101663.56;5070836;28;20414;-77
2021/07/20 08:37:01;;;;;;;12.95;5.60;;;;;;;19.52;54.76;101675.22;5070711;28;20573;-77
2021/07/20 08:39:29;;;;;;;16.83;6.47;;;;;;;19.72;53.37;101678.94;5070721;28;20028;-76
2021/07/20 08:42:14;;;;;;;8.57;5.00;;;;;;;19.51;50.68;101673.56;5053808;28;20449;-77
2021/07/20 08:45:14;;;;;;;11.27;5.85;;;;;;;18.42;55.07;101668.47;5053882;28;20374;-77
2021/07/20 08:48:07;;;;;;;10.70;6.28;;;;;;;18.81;56.60;101673.47;5070393;28;20046;-76
2021/07/20 08:50:45;;;;;;;10.68;5.68;;;;;;;20.90;51.71;101675.94;5070214;28;20032;-76
2021/07/20 08:53:21;;;;;;;7.38;5.43;;;;;;;22.47;46.82;101676.78;5071382;28;20111;-76
2021/07/20 08:55:49;;;;;;;;;;;;;;;22.55;46.90;101678.41;5053649;28;20036;-76
2021/07/20 08:58:22;;;;;;;8.52;4.82;;;;;;;21.84;47.21;101677.47;5070562;28;19920;-77
2021/07/20 09:00:49;;;;;;;7.63;5.50;;;;;;;21.20;49.01;101670.09;5070106;28;20370;-76
2021/07/20 09:03:35;;;;;;;7.82;5.20;;;;;;;21.25;47.43;101673.00;5071170;28;20036;-76
2021/07/20 09:06:09;;;;;;;7.45;5.70;;;;;;;20.47;50.81;101670.88;5069456;28;20058;-76
2021/07/20 09:09:07;;;;;;;9.80;5.43;;;;;;;20.30;48.50;101669.56;5070118;28;20128;-76
2021/07/20 09:11:47;;;;;;;9.43;5.97;;;;;;;20.04;48.19;101673.84;5069689;28;20428;-77
2021/07/20 09:14:34;;;;;;;8.90;4.90;;;;;;;20.15;50.01;101678.69;5070994;28;20041;-77
2021/07/20 09:17:14;;;;;;;10.82;5.82;;;;;;;19.82;48.38;101682.09;5070710;28;20082;-76
2021/07/20 09:19:50;;;;;;;8.68;4.43;;;;;;;19.14;50.79;101673.72;5070210;28;20047;-77
2021/07/20 09:22:22;;;;;;;11.02;5.45;;;;;;;19.27;52.35;101677.56;5053257;28;20492;-77
2021/07/20 09:24:55;;;;;;;10.38;6.07;;;;;;;18.98;51.80;101677.56;5069561;28;20040;-76
2021/07/20 09:27:29;;;;;;;12.88;5.70;;;;;;;18.84;51.09;101680.34;5070630;28;20036;-77
2021/07/20 09:30:00;;;;;;;11.25;5.78;;;;;;;18.88;51.95;101674.34;5069992;28;20033;-77
2021/07/20 09:32:53;;;;;;;6.40;4.68;;;;;;;18.74;54.05;101676.06;5069580;28;20029;-76
2021/07/20 09:35:26;;;;;;;9.55;5.57;;;;;;;19.04;53.49;101692.19;5069682;28;20040;-76
2021/07/20 09:38:07;;;;;;;8.88;5.30;;;;;;;19.00;54.15;101684.66;5070535;28;20166;-76
2021/07/20 09:40:51;;;;;;;7.80;5.07;;;;;;;19.18;53.88;101683.13;5069669;28;20366;-76
2021/07/20 09:43:29;;;;;;;9.05;4.93;;;;;;;19.54;53.69;101689.41;5070580;28;20032;-76
2021/07/20 09:46:03;;;;;;;7.22;4.93;;;;;;;19.79;51.32;101690.63;5051733;28;20037;-76
2021/07/20 09:48:50;;;;;;;14.52;5.78;;;;;;;21.12;47.90;101689.28;5070791;28;20048;-76
2021/07/20 09:51:41;;;;;;;10.77;5.43;;;;;;;22.02;46.00;101684.13;5069472;28;20102;-76
2021/07/20 09:54:30;;;;;;;9.13;4.85;;;;;;;21.89;47.57;101685.84;5052721;28;20028;-76
2021/07/20 09:57:14;;;;;;;8.48;5.05;;;;;;;21.62;44.78;101678.81;5070124;28;20024;-76
2021/07/20 09:59:57;;;;;;;8.45;4.95;;;;;;;21.29;47.32;101685.13;5070500;28;20472;-76
2021/07/20 10:02:33;;;;;;;11.20;5.90;;;;;;;20.17;48.59;101676.63;5070035;28;20419;-76
2021/07/20 10:05:04;;;;;;;11.10;5.60;;;;;;;20.07;49.05;101673.47;5052881;28;20086;-77
2021/07/20 10:07:42;;;;;;;13.07;4.78;;;;;;;20.60;49.01;101676.34;5068894;28;20048;-77
2021/07/20 10:10:11;;;;;;;10.88;5.60;;;;;;;20.50;48.76;101670.44;5052660;28;20036;-76
2021/07/20 10:13:02;;;;;;;9.15;5.13;;;;;;;21.74;46.11;101666.22;5069756;28;20028;-76
2021/07/20 10:15:50;;;;;;;8.65;4.90;;;;;;;22.65;43.33;101677.94;5052384;28;20127;-77
2021/07/20 10:18:58;;;;;;;8.52;5.63;;;;;;;22.74;43.43;101665.72;5070040;28;20133;-77
2021/07/20 10:21:29;;;;;;;6.60;5.00;;;;;;;22.04;44.34;101662.97;5036292;28;20462;-76
2021/07/20 10:23:59;;;;;;;9.05;5.55;;;;;;;22.12;44.31;101662.72;5068793;28;20047;-76
2021/07/20 10:26:37;;;;;;;8.40;5.18;;;;;;;23.34;44.47;101670.66;5069851;28;20075;-77
2021/07/20 10:29:05;;;;;;;11.60;5.10;;;;;;;23.84;41.46;101670.56;5069896;28;20411;-76
2021/07/20 10:31:59;;;;;;;10.23;4.78;;;;;;;25.20;38.75;101668.13;5068764;28;20025;-76
2021/07/20 10:34:27;;;;;;;8.70;5.22;;;;;;;24.28;38.65;101654.88;5052019;28;20094;-76
2021/07/20 10:37:18;;;;;;;10.55;5.45;;;;;;;24.69;40.43;101666.88;5068757;28;20041;-76
2021/07/20 10:39:50;;;;;;;9.77;5.25;;;;;;;23.40;42.25;101664.31;5068701;28;20041;-76
2021/07/20 10:42:41;;;;;;;8.35;5.22;;;;;;;23.84;39.63;101653.38;5068767;28;20031;-76
2021/07/20 10:45:09;;;;;;;8.98;5.50;;;;;;;23.30;43.44;101650.38;5037518;28;20041;-77
2021/07/20 10:47:40;;;;;;;8.18;5.03;;;;;;;23.02;44.86;101651.69;5051317;28;20038;-76
2021/07/20 10:50:12;;;;;;;8.00;4.90;;;;;;;21.99;44.93;101646.50;5051965;28;20546;-76
2021/07/20 10:52:59;;;;;;;13.65;5.07;;;;;;;21.60;45.47;101640.97;5068564;28;20111;-77
2021/07/20 10:55:53;;;;;;;9.07;5.95;;;;;;;21.43;47.32;101635.19;5069484;28;20051;-76
2021/07/20 10:58:28;;;;;;;9.20;4.93;;;;;;;21.40;47.72;101637.47;5070961;28;20032;-76
2021/07/20 11:01:08;;;;;;;7.83;4.63;;;;;;;22.15;45.85;101640.56;5055698;28;20059;-76
2021/07/20 11:04:11;;;;;;;8.40;5.55;;;;;;;23.03;44.16;101644.34;5072444;28;20347;-76
2021/07/20 11:06:41;;;;;;;9.73;4.75;;;;;;;24.36;39.93;101640.88;5072013;28;20469;-76
2021/07/20 11:09:12;;;;;;;7.50;5.78;;;;;;;24.48;41.15;101631.94;5072336;28;20025;-76
2021/07/20 11:11:44;;;;;;;9.10;5.40;;;;;;;23.35;42.12;101636.91;5071959;28;20119;-76
2021/07/20 11:14:10;;;;;;;9.82;5.43;;;;;;;22.74;42.83;101631.16;5073022;28;20497;-76
2021/07/20 11:16:39;;;;;;;12.68;5.32;;;;;;;22.08;44.50;101628.88;5071698;28;20036;-77
2021/07/20 11:19:06;;;;;;;7.65;5.13;;;;;;;21.78;45.31;101624.00;5072176;28;20094;-76
2021/07/20 11:21:32;;;;;;;8.32;5.38;;;;;;;21.97;47.18;101626.84;5055212;28;20378;-77
2021/07/20 11:23:58;;;;;;;6.80;5.03;;;;;;;22.54;44.58;101630.47;5071932;28;20035;-77
2021/07/20 11:26:25;;;;;;;8.95;5.78;;;;;;;23.25;42.88;101628.41;5054978;28;20032;-76
2021/07/20 11:28:52;;;;;;;9.73;5.22;;;;;;;23.35;42.48;101631.47;5072941;28;20028;-78
2021/07/20 11:31:32;;;;;;;9.75;5.88;;;;;;;24.41;41.11;101635.56;5071444;28;20028;-77
2021/07/20 11:34:02;;;;;;;9.55;5.65;;;;;;;24.49;39.67;101614.47;5072033;28;20446;-76
2021/07/20 11:36:35;;;;;;;7.53;4.82;;;;;;;24.57;39.46;101608.69;5054866;28;20502;-78
2021/07/20 11:39:01;;;;;;;7.88;5.28;;;;;;;23.27;42.05;101623.56;5071793;28;20047;-76
2021/07/20 11:41:45;;;;;;;;;;;;;;;22.80;45.03;101636.75;5055299;28;20376;-76
2021/07/20 11:44:34;;;;;;;9.52;5.55;;;;;;;22.99;45.38;101630.34;5071691;28;19913;-77
2021/07/20 11:47:09;;;;;;;8.98;4.70;;;;;;;22.59;45.35;101619.75;5070949;28;20090;-77
2021/07/20 11:50:01;;;;;;;7.85;5.50;;;;;;;23.48;41.65;101625.84;5054984;28;20040;-77
2021/07/20 11:52:53;;;;;;;8.15;4.63;;;;;;;24.09;40.79;101628.69;5072351;28;20511;-77